createdAt,value
2023-02-13T00:00:25.741Z,17.48
2023-02-13T00:03:10.807Z,15.30
2023-02-13T00:05:55.630Z,17.48
2023-02-13T00:08:40.919Z,18.67
2023-02-13T00:11:25.687Z,15.70
2023-02-13T00:14:10.855Z,16.45
2023-02-13T00:16:55.702Z,17.27
2023-02-13T00:19:40.943Z,13.80
2023-02-13T00:22:25.857Z,13.35
2023-02-13T00:25:11.635Z,14.07
2023-02-13T00:27:56.928Z,16.02
2023-02-13T00:30:41.907Z,17.88
2023-02-13T00:33:26.846Z,18.92
2023-02-13T00:36:15.628Z,20.45
2023-02-13T00:39:00.602Z,18.48
2023-02-13T00:41:45.772Z,19.20
2023-02-13T00:44:30.777Z,18.02
2023-02-13T00:47:15.639Z,21.08
2023-02-13T00:50:01.361Z,20.48
2023-02-13T00:52:46.122Z,21.40
2023-02-13T00:55:31.432Z,23.65
2023-02-13T00:58:18.224Z,24.73
2023-02-13T01:01:03.659Z,22.90
2023-02-13T01:03:48.587Z,22.92
2023-02-13T01:06:33.787Z,22.52
2023-02-13T01:09:18.567Z,28.40
2023-02-13T01:12:03.512Z,24.38
2023-02-13T01:14:48.242Z,22.88
2023-02-13T01:17:33.232Z,21.10
2023-02-13T01:20:18.165Z,21.85
2023-02-13T01:23:03.545Z,25.15
2023-02-13T01:25:51.504Z,24.83
2023-02-13T01:28:36.768Z,24.38
2023-02-13T01:31:22.387Z,23.45
2023-02-13T01:34:07.410Z,23.15
2023-02-13T01:36:52.483Z,24.15
2023-02-13T01:39:37.317Z,21.30
2023-02-13T01:42:27.516Z,20.27
2023-02-13T01:45:23.395Z,22.40
2023-02-13T01:48:20.293Z,20.98
2023-02-13T01:51:11.316Z,14.95
2023-02-13T01:54:02.134Z,19.38
2023-02-13T01:56:51.984Z,18.05
2023-02-13T02:00:06.751Z,18.15
2023-02-13T02:02:58.383Z,13.20
2023-02-13T02:05:43.642Z,20.25
2023-02-13T02:08:31.178Z,17.75
2023-02-13T02:11:25.629Z,17.73
2023-02-13T02:14:10.945Z,18.65
2023-02-13T02:16:56.801Z,17.38
2023-02-13T02:19:49.433Z,18.05
2023-02-13T02:22:46.587Z,14.77
2023-02-13T02:25:50.219Z,17.52
2023-02-13T02:29:23.845Z,18.15
2023-02-13T02:32:36.287Z,18.92
2023-02-13T02:38:43.896Z,18.27
2023-02-13T02:41:45.161Z,19.02
2023-02-13T02:44:56.170Z,16.50
2023-02-13T02:48:18.225Z,18.40
2023-02-13T02:51:06.734Z,23.92
2023-02-13T02:54:27.195Z,19.02
2023-02-13T02:57:24.618Z,18.50
2023-02-13T03:00:29.327Z,18.48
2023-02-13T03:03:39.068Z,21.40
2023-02-13T03:06:50.519Z,20.30
2023-02-13T03:09:58.942Z,17.73
2023-02-13T03:13:09.529Z,17.85
2023-02-13T03:16:17.909Z,18.38
2023-02-13T03:19:21.638Z,20.55
2023-02-13T03:22:32.670Z,18.65
2023-02-13T03:25:35.126Z,21.80
2023-02-13T03:28:52.411Z,18.40
2023-02-13T03:31:54.312Z,21.52
2023-02-13T03:35:08.691Z,19.95
2023-02-13T03:38:01.244Z,19.15
2023-02-13T03:41:19.431Z,19.70
2023-02-13T03:44:34.697Z,18.13
2023-02-13T03:47:20.052Z,17.80
2023-02-13T03:50:09.170Z,21.52
2023-02-13T03:53:06.969Z,22.90
2023-02-13T03:56:11.909Z,19.08
2023-02-13T03:59:17.272Z,23.88
2023-02-13T04:02:12.897Z,24.08
2023-02-13T04:05:17.551Z,20.90
2023-02-13T04:08:02.776Z,22.88
2023-02-13T04:11:00.659Z,18.38
2023-02-13T04:13:52.742Z,28.15
2023-02-13T04:16:42.406Z,24.00
2023-02-13T04:19:28.106Z,23.77
2023-02-13T04:22:13.911Z,22.42
2023-02-13T04:24:58.495Z,23.75
2023-02-13T04:27:43.639Z,20.58
2023-02-13T04:30:28.637Z,21.15
2023-02-13T04:33:14.232Z,21.33
2023-02-13T04:35:59.417Z,23.88
2023-02-13T04:38:45.543Z,18.85
2023-02-13T04:41:30.580Z,21.95
2023-02-13T04:44:15.263Z,21.50
2023-02-13T04:47:00.054Z,20.77
2023-02-13T04:49:44.799Z,25.50
2023-02-13T04:52:29.852Z,19.55
2023-02-13T04:55:14.716Z,20.30
2023-02-13T04:57:59.672Z,15.80
2023-02-13T05:00:44.430Z,21.00
2023-02-13T05:03:29.847Z,18.67
2023-02-13T05:06:14.854Z,16.88
2023-02-13T05:08:59.945Z,19.27
2023-02-13T05:11:45.370Z,19.92
2023-02-13T05:14:30.093Z,21.27
2023-02-13T05:17:15.465Z,18.08
2023-02-13T05:20:00.248Z,16.88
2023-02-13T05:23:04.919Z,17.23
2023-02-13T05:25:50.638Z,18.70
2023-02-13T05:28:54.540Z,19.38
2023-02-13T05:31:39.673Z,22.38
2023-02-13T05:34:26.689Z,21.95
2023-02-13T05:37:11.613Z,20.65
2023-02-13T05:39:56.432Z,20.83
2023-02-13T05:42:41.727Z,18.13
2023-02-13T05:45:26.489Z,17.77
2023-02-13T05:48:11.969Z,19.67
2023-02-13T05:50:57.374Z,16.38
2023-02-13T05:53:42.298Z,18.00
2023-02-13T05:56:27.192Z,16.13
2023-02-13T05:59:12.323Z,21.25
2023-02-13T06:01:57.571Z,20.52
2023-02-13T06:04:43.073Z,21.60
2023-02-13T06:07:27.659Z,19.05
2023-02-13T06:10:12.664Z,21.45
2023-02-13T06:12:58.154Z,17.95
2023-02-13T06:15:46.333Z,18.00
2023-02-13T06:18:31.333Z,15.20
2023-02-13T06:21:16.410Z,19.02
2023-02-13T06:24:01.577Z,23.17
2023-02-13T06:26:46.350Z,18.30
2023-02-13T06:29:33.244Z,22.02
2023-02-13T06:32:18.352Z,19.65
2023-02-13T06:35:05.581Z,26.45
2023-02-13T06:37:50.931Z,26.50
2023-02-13T06:40:35.652Z,21.08
2023-02-13T06:43:20.768Z,20.02
2023-02-13T06:46:08.334Z,23.25
2023-02-13T06:48:54.300Z,22.35
2023-02-13T06:51:39.214Z,22.23
2023-02-13T06:54:37.117Z,25.77
2023-02-13T06:57:32.989Z,24.05
2023-02-13T07:00:19.557Z,18.98
2023-02-13T07:03:06.741Z,23.45
2023-02-13T07:05:52.208Z,24.55
2023-02-13T07:08:37.050Z,22.42
2023-02-13T07:11:25.318Z,22.85
2023-02-13T07:14:10.229Z,22.05
2023-02-13T07:16:55.757Z,26.48
2023-02-13T07:19:40.372Z,21.10
2023-02-13T07:22:25.589Z,23.10
2023-02-13T07:25:10.218Z,23.20
2023-02-13T07:27:55.957Z,24.70
2023-02-13T07:30:40.686Z,23.45
2023-02-13T07:33:26.199Z,21.38
2023-02-13T07:36:11.114Z,22.02
2023-02-13T07:38:55.993Z,21.58
2023-02-13T07:41:40.860Z,22.15
2023-02-13T07:44:25.871Z,17.02
2023-02-13T07:47:11.288Z,23.48
2023-02-13T07:49:56.082Z,24.40
2023-02-13T07:52:42.076Z,19.50
2023-02-13T07:55:28.860Z,23.25
2023-02-13T07:58:14.378Z,19.15
2023-02-13T08:00:59.137Z,20.33
2023-02-13T08:03:48.572Z,22.73
2023-02-13T08:06:33.198Z,21.50
2023-02-13T08:09:53.280Z,22.13
2023-02-13T08:12:38.548Z,22.85
2023-02-13T08:15:23.873Z,23.77
2023-02-13T08:18:08.863Z,17.05
2023-02-13T08:20:53.742Z,17.00
2023-02-13T08:23:38.831Z,24.35
2023-02-13T08:26:23.580Z,21.50
2023-02-13T08:29:08.837Z,21.83
2023-02-13T08:31:54.078Z,22.27
2023-02-13T08:34:39.637Z,16.65
2023-02-13T08:37:24.776Z,18.20
2023-02-13T08:40:10.918Z,20.15
2023-02-13T08:43:03.743Z,18.45
2023-02-13T08:45:48.526Z,17.70
2023-02-13T08:48:33.859Z,24.23
2023-02-13T08:51:18.788Z,18.75
2023-02-13T08:54:04.179Z,19.38
2023-02-13T08:56:48.931Z,18.30
2023-02-13T08:59:33.800Z,16.92
2023-02-13T09:02:18.614Z,21.52
2023-02-13T09:05:04.908Z,20.30
2023-02-13T09:07:50.010Z,17.55
2023-02-13T09:10:35.001Z,18.85
2023-02-13T09:13:20.329Z,18.65
2023-02-13T09:16:07.223Z,16.10
2023-02-13T09:18:53.047Z,20.98
2023-02-13T09:21:37.837Z,13.50
2023-02-13T09:24:22.705Z,17.02
2023-02-13T09:27:08.573Z,16.38
2023-02-13T09:29:53.361Z,16.85
2023-02-13T09:32:41.146Z,17.35
2023-02-13T09:35:26.232Z,16.58
2023-02-13T09:38:11.721Z,19.30
2023-02-13T09:41:02.329Z,19.90
2023-02-13T09:44:00.510Z,15.60
2023-02-13T09:46:46.593Z,16.48
2023-02-13T09:49:35.333Z,13.23
2023-02-13T09:52:20.538Z,16.20
2023-02-13T09:55:32.271Z,14.40
2023-02-13T09:58:32.499Z,16.02
2023-02-13T10:01:26.488Z,18.92
2023-02-13T10:04:23.879Z,13.15
2023-02-13T10:07:23.048Z,13.85
2023-02-13T10:10:28.130Z,12.60
2023-02-13T10:13:50.728Z,13.45
2023-02-13T10:16:41.912Z,13.98
2023-02-13T10:19:40.490Z,13.13
2023-02-13T10:22:38.724Z,16.05
2023-02-13T10:25:44.075Z,12.32
2023-02-13T10:28:42.813Z,12.00
2023-02-13T10:31:28.052Z,11.82
2023-02-13T10:34:17.430Z,9.88
2023-02-13T10:37:03.232Z,9.07
2023-02-13T10:39:54.023Z,12.60
2023-02-13T10:43:07.490Z,15.70
2023-02-13T10:46:19.060Z,11.35
2023-02-13T10:49:26.196Z,12.25
2023-02-13T10:52:48.906Z,10.25
2023-02-13T10:55:55.324Z,9.13
2023-02-13T10:58:46.485Z,9.65
2023-02-13T11:01:47.559Z,9.63
2023-02-13T11:04:33.175Z,9.82
2023-02-13T11:07:22.175Z,10.05
2023-02-13T11:10:18.901Z,8.57
2023-02-13T11:13:17.256Z,10.40
2023-02-13T11:16:07.424Z,10.15
2023-02-13T11:18:53.215Z,10.25
2023-02-13T11:21:38.648Z,8.98
2023-02-13T11:24:26.576Z,10.73
2023-02-13T11:27:13.777Z,8.88
2023-02-13T11:30:02.194Z,7.80
2023-02-13T11:32:58.598Z,6.80
2023-02-13T11:35:46.324Z,8.55
2023-02-13T11:38:31.241Z,9.63
2023-02-13T11:41:19.328Z,9.00
2023-02-13T11:44:05.520Z,7.57
2023-02-13T11:46:53.616Z,8.65
2023-02-13T11:49:40.081Z,6.90
2023-02-13T11:52:29.088Z,9.00
2023-02-13T11:55:35.537Z,8.82
2023-02-13T11:58:27.698Z,7.72
2023-02-13T12:01:31.174Z,9.13
2023-02-13T12:04:21.533Z,9.70
2023-02-13T12:07:26.848Z,8.77
2023-02-13T12:10:15.294Z,8.25
2023-02-13T12:13:15.274Z,7.95
2023-02-13T12:16:04.559Z,8.75
2023-02-13T12:18:53.744Z,8.90
2023-02-13T12:22:05.454Z,8.07
2023-02-13T12:25:24.381Z,8.68
2023-02-13T12:28:17.072Z,6.93
2023-02-13T12:31:30.481Z,7.40
2023-02-13T12:34:28.536Z,7.00
2023-02-13T12:37:28.861Z,6.13
2023-02-13T12:40:42.992Z,12.38
2023-02-13T12:44:07.324Z,5.68
2023-02-13T12:47:05.292Z,8.73
2023-02-13T12:50:21.903Z,7.63
2023-02-13T12:53:16.683Z,7.03
2023-02-13T12:56:10.654Z,8.68
2023-02-13T13:02:04.604Z,6.22
2023-02-13T13:05:27.254Z,6.82
2023-02-13T13:08:32.438Z,7.57
2023-02-13T13:11:37.653Z,6.78
2023-02-13T13:14:39.949Z,5.63
2023-02-13T13:17:36.168Z,6.07
2023-02-13T13:21:02.192Z,5.90
2023-02-13T13:24:00.197Z,6.90
2023-02-13T13:26:50.077Z,6.28
2023-02-13T13:30:00.868Z,7.03
2023-02-13T13:33:11.658Z,7.28
2023-02-13T13:36:33.199Z,6.72
2023-02-13T13:39:38.689Z,8.88
2023-02-13T13:42:47.556Z,8.75
2023-02-13T13:45:57.357Z,5.97
2023-02-13T13:49:04.141Z,5.60
2023-02-13T13:51:51.323Z,7.22
2023-02-13T13:54:37.174Z,6.78
2023-02-13T13:57:24.487Z,6.20
2023-02-13T14:00:12.085Z,8.68
2023-02-13T14:03:17.348Z,7.00
2023-02-13T14:06:14.195Z,7.10
2023-02-13T14:09:02.099Z,8.20
2023-02-13T14:11:47.470Z,6.25
2023-02-13T14:14:35.350Z,7.18
2023-02-13T14:17:45.355Z,5.88
2023-02-13T14:20:37.539Z,5.85
2023-02-13T14:23:27.110Z,6.63
2023-02-13T14:26:15.239Z,5.85
2023-02-13T14:29:25.351Z,6.93
2023-02-13T14:32:19.761Z,5.43
2023-02-13T14:35:20.690Z,5.85
2023-02-13T14:38:17.822Z,6.43
2023-02-13T14:41:03.838Z,5.60
2023-02-13T14:43:53.735Z,6.82
2023-02-13T14:46:41.155Z,5.85
2023-02-13T14:49:30.476Z,7.22
2023-02-13T14:52:43.395Z,6.90
2023-02-13T14:55:31.225Z,6.80
2023-02-13T14:58:23.799Z,5.88
2023-02-13T15:01:14.477Z,7.28
2023-02-13T15:04:07.803Z,6.47
2023-02-13T15:06:55.205Z,8.43
2023-02-13T15:09:47.268Z,5.57
2023-02-13T15:12:35.488Z,4.72
2023-02-13T15:15:24.795Z,5.63
2023-02-13T15:18:19.784Z,8.75
2023-02-13T15:21:04.975Z,6.13
2023-02-13T15:23:57.662Z,6.28
2023-02-13T15:26:44.498Z,5.57
2023-02-13T15:29:44.229Z,7.13
2023-02-13T15:32:36.883Z,5.78
2023-02-13T15:35:28.834Z,4.93
2023-02-13T15:38:24.630Z,4.95
2023-02-13T15:41:17.861Z,5.88
2023-02-13T15:44:03.939Z,6.05
2023-02-13T15:46:52.116Z,6.13
2023-02-13T15:49:47.471Z,5.88
2023-02-13T15:52:36.843Z,4.68
2023-02-13T15:55:25.433Z,7.00
2023-02-13T15:58:13.494Z,5.65
2023-02-13T16:01:07.209Z,6.15
2023-02-13T16:04:03.281Z,7.90
2023-02-13T16:06:50.539Z,9.05
2023-02-13T16:09:36.741Z,7.53
2023-02-13T16:12:28.849Z,9.00
2023-02-13T16:15:18.437Z,10.57
2023-02-13T16:18:06.141Z,7.35
2023-02-13T16:20:56.452Z,7.00
2023-02-13T16:23:45.764Z,7.00
2023-02-13T16:26:31.436Z,7.22
2023-02-13T16:29:20.696Z,8.15
2023-02-13T16:32:18.088Z,9.43
2023-02-13T16:35:21.489Z,8.07
2023-02-13T16:38:39.915Z,7.82
2023-02-13T16:41:32.714Z,8.52
2023-02-13T16:44:32.864Z,9.00
2023-02-13T16:47:24.130Z,9.07
2023-02-13T16:50:18.449Z,15.80
2023-02-13T16:53:04.976Z,23.20
2023-02-13T16:56:04.679Z,16.58
2023-02-13T16:58:50.032Z,11.55
2023-02-13T17:01:38.354Z,9.05
2023-02-13T17:04:25.210Z,8.45
2023-02-13T17:07:19.402Z,9.43
2023-02-13T17:10:05.739Z,8.77
2023-02-13T17:12:51.765Z,11.48
2023-02-13T17:15:37.524Z,8.77
2023-02-13T17:18:22.735Z,10.15
2023-02-13T17:21:10.597Z,10.13
2023-02-13T17:23:55.691Z,9.43
2023-02-13T17:26:40.590Z,9.98
2023-02-13T17:29:26.062Z,12.60
2023-02-13T17:32:18.148Z,10.15
2023-02-13T17:35:03.023Z,10.55
2023-02-13T17:37:48.367Z,11.25
2023-02-13T17:40:35.592Z,10.85
2023-02-13T17:43:20.975Z,10.43
2023-02-13T17:46:06.674Z,9.75
2023-02-13T17:48:51.897Z,8.88
2023-02-13T17:51:40.123Z,7.68
2023-02-13T17:54:25.201Z,8.82
2023-02-13T17:57:12.164Z,8.63
2023-02-13T17:59:57.009Z,9.68
2023-02-13T18:02:42.774Z,11.65
2023-02-13T18:05:28.903Z,11.93
2023-02-13T18:08:13.795Z,10.85
2023-02-13T18:10:59.018Z,15.15
2023-02-13T18:13:48.318Z,15.65
2023-02-13T18:16:33.435Z,11.05
2023-02-13T18:19:23.475Z,13.32
2023-02-13T18:22:09.245Z,11.13
2023-02-13T18:24:54.717Z,12.05
2023-02-13T18:27:40.153Z,13.70
2023-02-13T18:30:25.353Z,12.52
2023-02-13T18:33:10.699Z,10.88
2023-02-13T18:36:03.698Z,11.93
2023-02-13T18:38:51.702Z,18.15
2023-02-13T18:41:39.029Z,103.80
2023-02-13T18:44:28.664Z,24.02
2023-02-13T18:47:15.328Z,10.20
2023-02-13T18:50:00.604Z,12.07
2023-02-13T18:52:46.852Z,11.40
2023-02-13T18:55:33.477Z,10.57
2023-02-13T18:58:18.754Z,12.45
2023-02-13T19:01:12.182Z,13.25
2023-02-13T19:03:57.186Z,15.40
2023-02-13T19:06:43.453Z,13.43
2023-02-13T19:09:28.372Z,13.07
2023-02-13T19:12:13.360Z,12.80
2023-02-13T19:14:58.690Z,11.68
2023-02-13T19:17:46.580Z,10.95
2023-02-13T19:20:31.852Z,12.00
2023-02-13T19:23:20.603Z,10.02
2023-02-13T19:26:13.104Z,11.25
2023-02-13T19:28:58.689Z,10.80
2023-02-13T19:31:43.599Z,11.13
2023-02-13T19:34:31.436Z,14.70
2023-02-13T19:37:17.447Z,11.63
2023-02-13T19:40:08.410Z,12.48
2023-02-13T19:42:53.506Z,12.52
2023-02-13T19:45:40.315Z,13.25
2023-02-13T19:48:25.439Z,11.05
2023-02-13T19:51:13.405Z,10.85
2023-02-13T19:54:06.245Z,16.30
2023-02-13T19:56:51.785Z,12.57
2023-02-13T19:59:37.875Z,14.38
2023-02-13T20:02:23.183Z,13.85
2023-02-13T20:05:09.792Z,12.57
2023-02-13T20:07:54.861Z,14.80
2023-02-13T20:10:47.743Z,16.38
2023-02-13T20:13:32.985Z,12.85
2023-02-13T20:16:18.365Z,13.18
2023-02-13T20:19:08.583Z,14.40
2023-02-13T20:21:55.594Z,13.95
2023-02-13T20:24:40.814Z,13.15
2023-02-13T20:27:25.496Z,16.13
2023-02-13T20:30:15.404Z,13.98
2023-02-13T20:33:00.648Z,13.77
2023-02-13T20:35:47.682Z,11.73
2023-02-13T20:38:34.210Z,14.70
2023-02-13T20:41:22.028Z,11.00
2023-02-13T20:44:11.880Z,13.27
2023-02-13T20:46:59.615Z,11.80
2023-02-13T20:49:45.221Z,14.20
2023-02-13T20:52:30.300Z,14.70
2023-02-13T20:55:15.890Z,14.90
2023-02-13T20:58:09.532Z,16.77
2023-02-13T21:00:54.967Z,11.50
2023-02-13T21:03:41.532Z,12.52
2023-02-13T21:06:32.232Z,14.35
2023-02-13T21:09:17.765Z,14.02
2023-02-13T21:12:03.386Z,12.25
2023-02-13T21:14:48.226Z,14.55
2023-02-13T21:17:33.580Z,13.65
2023-02-13T21:20:18.726Z,16.13
2023-02-13T21:23:05.849Z,17.55
2023-02-13T21:25:50.989Z,17.42
2023-02-13T21:28:39.221Z,13.43
2023-02-13T21:31:27.701Z,17.48
2023-02-13T21:34:19.131Z,14.75
2023-02-13T21:37:04.290Z,15.55
2023-02-13T21:39:50.091Z,14.18
2023-02-13T21:42:36.390Z,14.88
2023-02-13T21:45:21.788Z,14.90
2023-02-13T21:48:07.422Z,13.02
2023-02-13T21:50:52.349Z,15.35
2023-02-13T21:53:38.292Z,16.65
2023-02-13T21:56:26.634Z,18.35
2023-02-13T21:59:15.514Z,16.27
2023-02-13T22:02:02.566Z,13.93
2023-02-13T22:04:47.577Z,13.70
2023-02-13T22:07:53.966Z,13.45
2023-02-13T22:10:40.116Z,15.50
2023-02-13T22:13:25.527Z,16.63
2023-02-13T22:16:13.362Z,15.93
2023-02-13T22:21:44.338Z,14.25
2023-02-13T22:24:29.594Z,15.43
2023-02-13T22:27:15.998Z,14.82
2023-02-13T22:30:00.985Z,16.33
2023-02-13T22:32:45.824Z,18.65
2023-02-13T22:35:31.814Z,18.20
2023-02-13T22:38:16.992Z,12.88
2023-02-13T22:41:11.696Z,14.32
2023-02-13T22:43:57.322Z,15.07
2023-02-13T22:46:42.190Z,14.18
2023-02-13T22:49:27.200Z,15.65
2023-02-13T22:52:12.199Z,16.83
2023-02-13T22:54:59.665Z,14.63
2023-02-13T23:00:32.292Z,14.18
2023-02-13T23:03:17.495Z,14.80
2023-02-13T23:06:07.112Z,14.23
2023-02-13T23:08:53.447Z,14.27
2023-02-13T23:11:57.890Z,15.85
2023-02-13T23:14:43.063Z,14.70
2023-02-13T23:17:46.641Z,15.27
2023-02-13T23:20:32.264Z,17.10
2023-02-13T23:23:17.136Z,16.63
2023-02-13T23:26:08.192Z,14.57
2023-02-13T23:28:53.112Z,15.45
2023-02-13T23:31:38.190Z,15.20
2023-02-13T23:34:23.600Z,15.55
2023-02-13T23:37:09.305Z,15.50
2023-02-13T23:39:54.112Z,15.98
2023-02-13T23:42:39.269Z,15.45
2023-02-13T23:45:24.328Z,16.05
2023-02-13T23:48:12.119Z,15.20
2023-02-13T23:50:57.542Z,15.75
2023-02-13T23:53:42.491Z,16.55
2023-02-13T23:56:27.410Z,16.40
2023-02-13T23:59:12.347Z,15.73
